sensor_id;sensor_type;location;lat;lon;timestamp;pressure;altitude;pressure_sealevel;temperature;humidity
56272;BME280;42177;48.914;18.160;2023-11-22T00:00:56;984.2;;;8;100
56272;BME280;42177;48.914;18.160;2023-11-22T00:05:56;984.4;;;8;100
56272;BME280;42177;48.914;18.160;2023-11-22T00:10:56;984.4;;;8;100
56272;BME280;42177;48.914;18.160;2023-11-22T00:15:56;984.5;;;8;100
56272;BME280;42177;48.914;18.160;2023-11-22T00:20:56;984.5;;;8;100
56272;BME280;42177;48.914;18.160;2023-11-22T00:25:56;984.8;;;7.8;100
56272;BME280;42177;48.914;18.160;2023-11-22T00:30:56;984.8;;;7.8;100
56272;BME280;42177;48.914;18.160;2023-11-22T00:35:56;984.9;;;7.7;98.3
56272;BME280;42177;48.914;18.160;2023-11-22T00:40:56;984.9;;;7.7;98.3
56272;BME280;42177;48.914;18.160;2023-11-22T00:45:56;985;;;7.6;97.9
56272;BME280;42177;48.914;18.160;2023-11-22T00:50:56;985;;;7.6;97.9
56272;BME280;42177;48.914;18.160;2023-11-22T00:55:56;985.2;;;7.5;98.4
56272;BME280;42177;48.914;18.160;2023-11-22T01:00:56;985.2;;;7.5;98.4
56272;BME280;42177;48.914;18.160;2023-11-22T01:05:56;985.4;;;7.7;97.2
56272;BME280;42177;48.914;18.160;2023-11-22T01:10:56;985.4;;;7.7;97.2
56272;BME280;42177;48.914;18.160;2023-11-22T01:15:56;985.4;;;7.6;97.3
56272;BME280;42177;48.914;18.160;2023-11-22T01:20:56;985.4;;;7.6;97.3
56272;BME280;42177;48.914;18.160;2023-11-22T01:25:56;985.3;;;7.4;96.5
56272;BME280;42177;48.914;18.160;2023-11-22T01:30:56;985.3;;;7.4;96.5
56272;BME280;42177;48.914;18.160;2023-11-22T01:35:56;985.5;;;7.4;96.6
56272;BME280;42177;48.914;18.160;2023-11-22T01:40:56;985.5;;;7.4;96.6
56272;BME280;42177;48.914;18.160;2023-11-22T01:45:56;985.5;;;7.2;97.5
56272;BME280;42177;48.914;18.160;2023-11-22T01:50:56;985.5;;;7.2;97.5
56272;BME280;42177;48.914;18.160;2023-11-22T01:55:56;985.5;;;7.3;95.6
56272;BME280;42177;48.914;18.160;2023-11-22T02:00:56;985.5;;;7.3;95.6
56272;BME280;42177;48.914;18.160;2023-11-22T02:05:56;985.7;;;6.9;97
56272;BME280;42177;48.914;18.160;2023-11-22T02:10:57;985.7;;;6.9;97
56272;BME280;42177;48.914;18.160;2023-11-22T02:15:56;985.8;;;6.8;96.6
56272;BME280;42177;48.914;18.160;2023-11-22T02:20:56;985.8;;;6.8;96.6
56272;BME280;42177;48.914;18.160;2023-11-22T02:25:56;986.1;;;6.7;92.8
56272;BME280;42177;48.914;18.160;2023-11-22T02:30:56;986.1;;;6.7;92.8
56272;BME280;42177;48.914;18.160;2023-11-22T02:35:56;986.2;;;6.7;90.4
56272;BME280;42177;48.914;18.160;2023-11-22T02:40:56;986.2;;;6.7;90.4
56272;BME280;42177;48.914;18.160;2023-11-22T02:45:56;986.4;;;6.7;89.3
56272;BME280;42177;48.914;18.160;2023-11-22T02:50:56;986.4;;;6.7;89.3
56272;BME280;42177;48.914;18.160;2023-11-22T02:55:58;986.4;;;6.6;89.7
56272;BME280;42177;48.914;18.160;2023-11-22T03:00:56;986.4;;;6.6;89.7
56272;BME280;42177;48.914;18.160;2023-11-22T03:05:56;986.5;;;6.8;89.7
56272;BME280;42177;48.914;18.160;2023-11-22T03:10:56;986.5;;;6.8;89.7
56272;BME280;42177;48.914;18.160;2023-11-22T03:15:56;986.6;;;6.6;90.1
56272;BME280;42177;48.914;18.160;2023-11-22T03:20:56;986.6;;;6.6;90.1
56272;BME280;42177;48.914;18.160;2023-11-22T03:25:56;986.7;;;6.5;90.3
56272;BME280;42177;48.914;18.160;2023-11-22T03:30:56;986.7;;;6.5;90.3
56272;BME280;42177;48.914;18.160;2023-11-22T03:35:56;986.9;;;6.6;87.4
56272;BME280;42177;48.914;18.160;2023-11-22T03:40:56;986.9;;;6.6;87.4
56272;BME280;42177;48.914;18.160;2023-11-22T03:45:56;987;;;6.3;87.2
56272;BME280;42177;48.914;18.160;2023-11-22T03:50:56;987;;;6.3;87.2
56272;BME280;42177;48.914;18.160;2023-11-22T03:55:56;986.7;;;6.2;86.2
56272;BME280;42177;48.914;18.160;2023-11-22T04:00:56;986.7;;;6.2;86.2
56272;BME280;42177;48.914;18.160;2023-11-22T04:05:56;987;;;6.1;85.7
56272;BME280;42177;48.914;18.160;2023-11-22T04:10:56;987;;;6.1;85.7
56272;BME280;42177;48.914;18.160;2023-11-22T04:15:56;987.3;;;6.1;84.9
56272;BME280;42177;48.914;18.160;2023-11-22T04:20:56;987.3;;;6.1;84.9
56272;BME280;42177;48.914;18.160;2023-11-22T04:25:56;987.3;;;6.1;84.7
56272;BME280;42177;48.914;18.160;2023-11-22T04:30:56;987.3;;;6.1;84.7
56272;BME280;42177;48.914;18.160;2023-11-22T04:35:56;987.6;;;5.8;84.8
56272;BME280;42177;48.914;18.160;2023-11-22T04:40:56;987.6;;;5.8;84.8
56272;BME280;42177;48.914;18.160;2023-11-22T04:45:56;987.6;;;5.6;86.1
56272;BME280;42177;48.914;18.160;2023-11-22T04:50:56;987.6;;;5.6;86.1
56272;BME280;42177;48.914;18.160;2023-11-22T04:55:56;987.7;;;5.7;86.6
56272;BME280;42177;48.914;18.160;2023-11-22T05:00:56;987.7;;;5.7;86.6
56272;BME280;42177;48.914;18.160;2023-11-22T05:05:56;987.8;;;5.4;87.5
56272;BME280;42177;48.914;18.160;2023-11-22T05:10:56;987.8;;;5.4;87.5
56272;BME280;42177;48.914;18.160;2023-11-22T05:15:56;987.9;;;5.6;87.7
56272;BME280;42177;48.914;18.160;2023-11-22T05:20:56;987.9;;;5.6;87.7
56272;BME280;42177;48.914;18.160;2023-11-22T05:25:56;988.2;;;5.5;88.7
56272;BME280;42177;48.914;18.160;2023-11-22T05:30:56;988.2;;;5.5;88.7
56272;BME280;42177;48.914;18.160;2023-11-22T05:35:56;988.4;;;5.4;89.2
56272;BME280;42177;48.914;18.160;2023-11-22T05:40:56;988.4;;;5.4;89.2
56272;BME280;42177;48.914;18.160;2023-11-22T05:45:56;988.4;;;5.3;88.5
56272;BME280;42177;48.914;18.160;2023-11-22T05:50:56;988.4;;;5.3;88.5
56272;BME280;42177;48.914;18.160;2023-11-22T05:55:56;988.7;;;5.5;87.5
56272;BME280;42177;48.914;18.160;2023-11-22T06:00:56;988.7;;;5.5;87.5
56272;BME280;42177;48.914;18.160;2023-11-22T06:05:56;988.7;;;5.6;86.1
56272;BME280;42177;48.914;18.160;2023-11-22T06:10:56;988.7;;;5.6;86.1
56272;BME280;42177;48.914;18.160;2023-11-22T06:15:56;988.9;;;5.6;85
56272;BME280;42177;48.914;18.160;2023-11-22T06:20:56;988.9;;;5.6;85
56272;BME280;42177;48.914;18.160;2023-11-22T06:25:56;989;;;5.6;84.1
56272;BME280;42177;48.914;18.160;2023-11-22T06:30:56;989;;;5.6;84.1
56272;BME280;42177;48.914;18.160;2023-11-22T06:35:56;989.2;;;5.5;83.9
56272;BME280;42177;48.914;18.160;2023-11-22T06:40:56;989.2;;;5.5;83.9
56272;BME280;42177;48.914;18.160;2023-11-22T06:45:56;989.4;;;5.5;84.6
56272;BME280;42177;48.914;18.160;2023-11-22T06:50:56;989.4;;;5.5;84.6
56272;BME280;42177;48.914;18.160;2023-11-22T06:55:56;989.6;;;5.2;86.4
56272;BME280;42177;48.914;18.160;2023-11-22T07:00:56;989.6;;;5.2;86.4
56272;BME280;42177;48.914;18.160;2023-11-22T07:05:56;989.6;;;5.2;87.1
56272;BME280;42177;48.914;18.160;2023-11-22T07:10:56;989.6;;;5.2;87.1
56272;BME280;42177;48.914;18.160;2023-11-22T07:15:56;989.8;;;5;87.6
56272;BME280;42177;48.914;18.160;2023-11-22T07:20:56;989.8;;;5;87.6
56272;BME280;42177;48.914;18.160;2023-11-22T07:25:56;989.8;;;4.9;86.9
56272;BME280;42177;48.914;18.160;2023-11-22T07:30:56;989.8;;;4.9;86.9
56272;BME280;42177;48.914;18.160;2023-11-22T07:35:56;989.9;;;4.9;85.9
56272;BME280;42177;48.914;18.160;2023-11-22T07:40:56;989.9;;;4.9;85.9
56272;BME280;42177;48.914;18.160;2023-11-22T07:45:56;990.1;;;5.1;83.8
56272;BME280;42177;48.914;18.160;2023-11-22T07:50:56;990.1;;;5.1;83.8
56272;BME280;42177;48.914;18.160;2023-11-22T07:55:56;990.3;;;5.4;83.2
56272;BME280;42177;48.914;18.160;2023-11-22T08:00:56;990.3;;;5.4;83.2
56272;BME280;42177;48.914;18.160;2023-11-22T08:05:56;990.3;;;5.1;82.9
56272;BME280;42177;48.914;18.160;2023-11-22T08:10:56;990.3;;;5.1;82.9
56272;BME280;42177;48.914;18.160;2023-11-22T08:15:56;990.7;;;5.4;82.8
56272;BME280;42177;48.914;18.160;2023-11-22T08:20:56;990.7;;;5.4;82.8
56272;BME280;42177;48.914;18.160;2023-11-22T08:25:56;990.7;;;5.2;83.5
56272;BME280;42177;48.914;18.160;2023-11-22T08:30:56;990.7;;;5.2;83.5
56272;BME280;42177;48.914;18.160;2023-11-22T08:35:56;990.6;;;5.4;82.5
56272;BME280;42177;48.914;18.160;2023-11-22T08:40:56;990.6;;;5.4;82.5
56272;BME280;42177;48.914;18.160;2023-11-22T08:45:56;991;;;5.6;80
56272;BME280;42177;48.914;18.160;2023-11-22T08:50:56;991;;;5.6;80
56272;BME280;42177;48.914;18.160;2023-11-22T08:55:56;991;;;5.5;80.5
56272;BME280;42177;48.914;18.160;2023-11-22T09:00:56;991;;;5.5;80.5
56272;BME280;42177;48.914;18.160;2023-11-22T09:05:56;991.1;;;5.7;78.6
56272;BME280;42177;48.914;18.160;2023-11-22T09:10:56;991.1;;;5.7;78.6
56272;BME280;42177;48.914;18.160;2023-11-22T09:15:56;991;;;5.6;78.6
56272;BME280;42177;48.914;18.160;2023-11-22T09:20:56;991;;;5.6;78.6
56272;BME280;42177;48.914;18.160;2023-11-22T09:25:56;991.2;;;5.9;77.9
56272;BME280;42177;48.914;18.160;2023-11-22T09:30:56;991.2;;;5.9;77.9
56272;BME280;42177;48.914;18.160;2023-11-22T09:35:56;991;;;5.5;79.7
56272;BME280;42177;48.914;18.160;2023-11-22T09:40:56;991;;;5.5;79.7
56272;BME280;42177;48.914;18.160;2023-11-22T09:45:56;991.1;;;5.5;79.6
56272;BME280;42177;48.914;18.160;2023-11-22T09:50:57;991.1;;;5.5;79.6
56272;BME280;42177;48.914;18.160;2023-11-22T09:55:56;991.3;;;5.5;80.8
56272;BME280;42177;48.914;18.160;2023-11-22T10:00:56;991.3;;;5.5;80.8
56272;BME280;42177;48.914;18.160;2023-11-22T10:05:56;991.4;;;5.6;79.7
56272;BME280;42177;48.914;18.160;2023-11-22T10:10:56;991.4;;;5.6;79.7
56272;BME280;42177;48.914;18.160;2023-11-22T10:15:56;991.5;;;5.7;79.3
56272;BME280;42177;48.914;18.160;2023-11-22T10:20:56;991.5;;;5.7;79.3
56272;BME280;42177;48.914;18.160;2023-11-22T10:25:56;991.8;;;5.6;79.8
56272;BME280;42177;48.914;18.160;2023-11-22T10:30:56;991.8;;;5.6;79.8
56272;BME280;42177;48.914;18.160;2023-11-22T10:35:56;991.9;;;5.6;79.5
56272;BME280;42177;48.914;18.160;2023-11-22T10:40:56;991.9;;;5.6;79.5
56272;BME280;42177;48.914;18.160;2023-11-22T10:45:56;992.2;;;5.8;78.2
56272;BME280;42177;48.914;18.160;2023-11-22T10:50:56;992.2;;;5.8;78.2
56272;BME280;42177;48.914;18.160;2023-11-22T10:55:56;992;;;5.8;78.6
56272;BME280;42177;48.914;18.160;2023-11-22T11:00:56;992;;;5.8;78.6
56272;BME280;42177;48.914;18.160;2023-11-22T11:05:58;991.8;;;5.6;78.7
56272;BME280;42177;48.914;18.160;2023-11-22T11:10:56;991.8;;;5.6;78.7
56272;BME280;42177;48.914;18.160;2023-11-22T11:15:56;991.6;;;6.1;76.8
56272;BME280;42177;48.914;18.160;2023-11-22T11:20:56;991.6;;;6.1;76.8
56272;BME280;42177;48.914;18.160;2023-11-22T11:25:57;991.7;;;5.8;76.8
56272;BME280;42177;48.914;18.160;2023-11-22T11:30:56;991.7;;;5.8;76.8
56272;BME280;42177;48.914;18.160;2023-11-22T11:35:56;991.8;;;5.8;77.6
56272;BME280;42177;48.914;18.160;2023-11-22T11:40:56;991.8;;;5.8;77.6
56272;BME280;42177;48.914;18.160;2023-11-22T11:45:57;991.7;;;7.1;71.9
56272;BME280;42177;48.914;18.160;2023-11-22T11:50:56;991.7;;;7.1;71.9
56272;BME280;42177;48.914;18.160;2023-11-22T11:55:56;991.7;;;7.3;67.2
56272;BME280;42177;48.914;18.160;2023-11-22T12:00:56;991.7;;;7.3;67.2
56272;BME280;42177;48.914;18.160;2023-11-22T12:05:56;992.1;;;7.2;66.7
56272;BME280;42177;48.914;18.160;2023-11-22T12:10:56;992.1;;;7.2;66.7
56272;BME280;42177;48.914;18.160;2023-11-22T12:15:56;992.2;;;7.5;66.6
56272;BME280;42177;48.914;18.160;2023-11-22T12:20:56;992.2;;;7.5;66.6
56272;BME280;42177;48.914;18.160;2023-11-22T12:25:56;992.5;;;6.9;69.9
56272;BME280;42177;48.914;18.160;2023-11-22T12:31:05;992.5;;;6.9;69.9
56272;BME280;42177;48.914;18.160;2023-11-22T12:35:56;992.4;;;6.1;72.1
56272;BME280;42177;48.914;18.160;2023-11-22T12:40:56;992.4;;;6.1;72.1
56272;BME280;42177;48.914;18.160;2023-11-22T12:45:58;992.3;;;5.7;72.5
56272;BME280;42177;48.914;18.160;2023-11-22T12:50:56;992.3;;;5.7;72.5
56272;BME280;42177;48.914;18.160;2023-11-22T12:55:56;992.4;;;5.3;74.5
56272;BME280;42177;48.914;18.160;2023-11-22T13:00:56;992.4;;;5.3;74.5
56272;BME280;42177;48.914;18.160;2023-11-22T13:05:56;992.6;;;5.2;75.5
56272;BME280;42177;48.914;18.160;2023-11-22T13:10:56;992.6;;;5.2;75.5
56272;BME280;42177;48.914;18.160;2023-11-22T13:15:56;992.6;;;4.9;75.9
56272;BME280;42177;48.914;18.160;2023-11-22T13:20:56;992.6;;;4.9;75.9
56272;BME280;42177;48.914;18.160;2023-11-22T13:25:56;992.5;;;4.7;74.4
56272;BME280;42177;48.914;18.160;2023-11-22T13:30:56;992.5;;;4.7;74.4
56272;BME280;42177;48.914;18.160;2023-11-22T13:35:56;992.6;;;5.2;71.9
56272;BME280;42177;48.914;18.160;2023-11-22T13:40:56;992.6;;;5.2;71.9
56272;BME280;42177;48.914;18.160;2023-11-22T13:45:56;993;;;5.2;71.5
56272;BME280;42177;48.914;18.160;2023-11-22T13:50:56;993;;;5.2;71.5
56272;BME280;42177;48.914;18.160;2023-11-22T13:55:56;992.9;;;5.4;69.4
56272;BME280;42177;48.914;18.160;2023-11-22T14:00:56;992.9;;;5.4;69.4
56272;BME280;42177;48.914;18.160;2023-11-22T14:05:56;993.1;;;4.9;71.1
56272;BME280;42177;48.914;18.160;2023-11-22T14:10:56;993.1;;;4.9;71.1
56272;BME280;42177;48.914;18.160;2023-11-22T14:15:56;993.1;;;4.4;71.8
56272;BME280;42177;48.914;18.160;2023-11-22T14:20:56;993.1;;;4.4;71.8
56272;BME280;42177;48.914;18.160;2023-11-22T14:25:56;993.2;;;4.5;71.6
56272;BME280;42177;48.914;18.160;2023-11-22T14:30:56;993.2;;;4.5;71.6
56272;BME280;42177;48.914;18.160;2023-11-22T14:35:56;993.5;;;4.5;72.1
56272;BME280;42177;48.914;18.160;2023-11-22T14:40:56;993.5;;;4.5;72.1
56272;BME280;42177;48.914;18.160;2023-11-22T14:45:56;993.2;;;4.4;73.1
56272;BME280;42177;48.914;18.160;2023-11-22T14:50:56;993.2;;;4.4;73.1
56272;BME280;42177;48.914;18.160;2023-11-22T14:55:56;993.6;;;4.1;74.1
56272;BME280;42177;48.914;18.160;2023-11-22T15:00:56;993.6;;;4.1;74.1
56272;BME280;42177;48.914;18.160;2023-11-22T15:05:56;993.9;;;4.4;73.1
56272;BME280;42177;48.914;18.160;2023-11-22T15:10:56;993.9;;;4.4;73.1
56272;BME280;42177;48.914;18.160;2023-11-22T15:15:56;994;;;4.1;75
56272;BME280;42177;48.914;18.160;2023-11-22T15:20:56;994;;;4.1;75
56272;BME280;42177;48.914;18.160;2023-11-22T15:25:56;993.8;;;4.1;75.1
56272;BME280;42177;48.914;18.160;2023-11-22T15:30:56;993.8;;;4.1;75.1
56272;BME280;42177;48.914;18.160;2023-11-22T15:35:56;993.9;;;3.9;74.7
56272;BME280;42177;48.914;18.160;2023-11-22T15:40:56;993.9;;;3.9;74.7
56272;BME280;42177;48.914;18.160;2023-11-22T15:45:56;993.8;;;3.8;74.5
56272;BME280;42177;48.914;18.160;2023-11-22T15:50:56;993.8;;;3.8;74.5
56272;BME280;42177;48.914;18.160;2023-11-22T15:55:56;993.9;;;3.7;74.3
56272;BME280;42177;48.914;18.160;2023-11-22T16:00:56;993.9;;;3.7;74.3
56272;BME280;42177;48.914;18.160;2023-11-22T16:05:56;994.3;;;3.7;74.2
56272;BME280;42177;48.914;18.160;2023-11-22T16:10:56;994.3;;;3.7;74.2
56272;BME280;42177;48.914;18.160;2023-11-22T16:15:56;994.3;;;3.8;73.2
56272;BME280;42177;48.914;18.160;2023-11-22T16:20:57;994.3;;;3.8;73.2
56272;BME280;42177;48.914;18.160;2023-11-22T16:25:56;994.5;;;3.6;74
56272;BME280;42177;48.914;18.160;2023-11-22T16:30:56;994.5;;;3.6;74
56272;BME280;42177;48.914;18.160;2023-11-22T16:35:56;994.6;;;3.6;73.6
56272;BME280;42177;48.914;18.160;2023-11-22T16:40:56;994.6;;;3.6;73.6
56272;BME280;42177;48.914;18.160;2023-11-22T16:45:56;994.7;;;3.6;73.6
56272;BME280;42177;48.914;18.160;2023-11-22T16:50:56;994.7;;;3.6;73.6
56272;BME280;42177;48.914;18.160;2023-11-22T16:55:56;994.4;;;3.5;74.4
56272;BME280;42177;48.914;18.160;2023-11-22T17:00:56;994.4;;;3.5;74.4
56272;BME280;42177;48.914;18.160;2023-11-22T17:05:56;994.2;;;3.6;74.3
56272;BME280;42177;48.914;18.160;2023-11-22T17:10:56;994.2;;;3.6;74.3
56272;BME280;42177;48.914;18.160;2023-11-22T17:15:56;994.1;;;3.5;74.5
56272;BME280;42177;48.914;18.160;2023-11-22T17:20:56;994.1;;;3.5;74.5
56272;BME280;42177;48.914;18.160;2023-11-22T17:25:56;994.2;;;3.6;75.1
56272;BME280;42177;48.914;18.160;2023-11-22T17:30:56;994.2;;;3.6;75.1
56272;BME280;42177;48.914;18.160;2023-11-22T17:35:56;994.3;;;3.4;76
56272;BME280;42177;48.914;18.160;2023-11-22T17:40:56;994.3;;;3.4;76
56272;BME280;42177;48.914;18.160;2023-11-22T17:45:56;994.8;;;3.2;76.2
56272;BME280;42177;48.914;18.160;2023-11-22T17:50:56;994.8;;;3.2;76.2
56272;BME280;42177;48.914;18.160;2023-11-22T17:55:56;995.1;;;3.3;76.2
56272;BME280;42177;48.914;18.160;2023-11-22T18:00:56;995.1;;;3.3;76.2
56272;BME280;42177;48.914;18.160;2023-11-22T18:05:56;995.2;;;3.4;76
56272;BME280;42177;48.914;18.160;2023-11-22T18:10:56;995.2;;;3.4;76
56272;BME280;42177;48.914;18.160;2023-11-22T18:15:56;995.3;;;3.4;75.6
56272;BME280;42177;48.914;18.160;2023-11-22T18:20:56;995.3;;;3.4;75.6
56272;BME280;42177;48.914;18.160;2023-11-22T18:25:56;995.2;;;3.6;75.4
56272;BME280;42177;48.914;18.160;2023-11-22T18:30:56;995.2;;;3.6;75.4
56272;BME280;42177;48.914;18.160;2023-11-22T18:35:56;995.2;;;3.4;75.4
56272;BME280;42177;48.914;18.160;2023-11-22T18:40:56;995.2;;;3.4;75.4
56272;BME280;42177;48.914;18.160;2023-11-22T18:45:56;995.3;;;3.2;75
56272;BME280;42177;48.914;18.160;2023-11-22T18:50:56;995.3;;;3.2;75
56272;BME280;42177;48.914;18.160;2023-11-22T18:55:56;995.5;;;3.3;73.5
56272;BME280;42177;48.914;18.160;2023-11-22T19:00:56;995.5;;;3.3;73.5
56272;BME280;42177;48.914;18.160;2023-11-22T19:05:56;995.5;;;3.4;72.9
56272;BME280;42177;48.914;18.160;2023-11-22T19:10:56;995.5;;;3.4;72.9
56272;BME280;42177;48.914;18.160;2023-11-22T19:15:56;995.8;;;3.7;72
56272;BME280;42177;48.914;18.160;2023-11-22T19:20:56;995.8;;;3.7;72
56272;BME280;42177;48.914;18.160;2023-11-22T19:25:56;995.4;;;3.6;71.5
56272;BME280;42177;48.914;18.160;2023-11-22T19:30:56;995.4;;;3.6;71.5
56272;BME280;42177;48.914;18.160;2023-11-22T19:35:56;995.4;;;3.6;71.5
56272;BME280;42177;48.914;18.160;2023-11-22T19:40:56;995.4;;;3.6;71.5
56272;BME280;42177;48.914;18.160;2023-11-22T19:45:56;995.3;;;3.7;72
56272;BME280;42177;48.914;18.160;2023-11-22T19:50:56;995.3;;;3.7;72
56272;BME280;42177;48.914;18.160;2023-11-22T19:55:56;995.4;;;3.9;71.4
56272;BME280;42177;48.914;18.160;2023-11-22T20:00:56;995.4;;;3.9;71.4
56272;BME280;42177;48.914;18.160;2023-11-22T20:05:56;995.3;;;3.4;73
56272;BME280;42177;48.914;18.160;2023-11-22T20:10:56;995.3;;;3.4;73
56272;BME280;42177;48.914;18.160;2023-11-22T20:15:56;995.3;;;3.4;74.9
56272;BME280;42177;48.914;18.160;2023-11-22T20:20:56;995.3;;;3.4;74.9
56272;BME280;42177;48.914;18.160;2023-11-22T20:25:56;995.3;;;3.4;75.4
56272;BME280;42177;48.914;18.160;2023-11-22T20:30:56;995.3;;;3.4;75.4
56272;BME280;42177;48.914;18.160;2023-11-22T20:35:56;995.4;;;3.5;76.6
56272;BME280;42177;48.914;18.160;2023-11-22T20:40:56;995.4;;;3.5;76.6
56272;BME280;42177;48.914;18.160;2023-11-22T20:45:56;995.4;;;3.5;78.3
56272;BME280;42177;48.914;18.160;2023-11-22T20:50:56;995.4;;;3.5;78.3
56272;BME280;42177;48.914;18.160;2023-11-22T20:55:56;995.3;;;3.1;79.6
56272;BME280;42177;48.914;18.160;2023-11-22T21:00:56;995.3;;;3.1;79.6
56272;BME280;42177;48.914;18.160;2023-11-22T21:05:56;995.3;;;3.3;79.3
56272;BME280;42177;48.914;18.160;2023-11-22T21:10:56;995.3;;;3.3;79.3
56272;BME280;42177;48.914;18.160;2023-11-22T21:15:56;995.4;;;3.7;77.9
56272;BME280;42177;48.914;18.160;2023-11-22T21:20:56;995.4;;;3.7;77.9
56272;BME280;42177;48.914;18.160;2023-11-22T21:25:56;995.2;;;3.2;79
56272;BME280;42177;48.914;18.160;2023-11-22T21:30:56;995.2;;;3.2;79
56272;BME280;42177;48.914;18.160;2023-11-22T21:35:56;995.5;;;3.6;77.1
56272;BME280;42177;48.914;18.160;2023-11-22T21:40:56;995.5;;;3.6;77.1
56272;BME280;42177;48.914;18.160;2023-11-22T21:45:56;995.4;;;2.9;79.5
56272;BME280;42177;48.914;18.160;2023-11-22T21:50:56;995.4;;;2.9;79.5
56272;BME280;42177;48.914;18.160;2023-11-22T21:55:56;995.4;;;2.8;80.3
56272;BME280;42177;48.914;18.160;2023-11-22T22:00:56;995.4;;;2.8;80.3
56272;BME280;42177;48.914;18.160;2023-11-22T22:05:56;995.3;;;3.2;79.3
56272;BME280;42177;48.914;18.160;2023-11-22T22:10:56;995.3;;;3.2;79.3
56272;BME280;42177;48.914;18.160;2023-11-22T22:15:56;995.2;;;3.1;80.4
56272;BME280;42177;48.914;18.160;2023-11-22T22:20:56;995.2;;;3.1;80.4
56272;BME280;42177;48.914;18.160;2023-11-22T22:25:56;995.2;;;3.1;80.5
56272;BME280;42177;48.914;18.160;2023-11-22T22:30:56;995.2;;;3.1;80.5
56272;BME280;42177;48.914;18.160;2023-11-22T22:35:56;995.2;;;3.2;79.9
56272;BME280;42177;48.914;18.160;2023-11-22T22:40:56;995.2;;;3.2;79.9
56272;BME280;42177;48.914;18.160;2023-11-22T22:45:56;995.2;;;3;80.4
56272;BME280;42177;48.914;18.160;2023-11-22T22:50:56;995.2;;;3;80.4
56272;BME280;42177;48.914;18.160;2023-11-22T22:55:56;995;;;3;79.9
56272;BME280;42177;48.914;18.160;2023-11-22T23:00:56;995;;;3;79.9
56272;BME280;42177;48.914;18.160;2023-11-22T23:05:56;995.2;;;2.9;80.6
56272;BME280;42177;48.914;18.160;2023-11-22T23:10:56;995.2;;;2.9;80.6
56272;BME280;42177;48.914;18.160;2023-11-22T23:15:56;995;;;2.5;81.3
56272;BME280;42177;48.914;18.160;2023-11-22T23:20:56;995;;;2.5;81.3
56272;BME280;42177;48.914;18.160;2023-11-22T23:25:56;995;;;2.8;78.3
56272;BME280;42177;48.914;18.160;2023-11-22T23:30:56;995;;;2.8;78.3
56272;BME280;42177;48.914;18.160;2023-11-22T23:35:56;995;;;2.8;79.5
56272;BME280;42177;48.914;18.160;2023-11-22T23:40:56;995;;;2.8;79.5
56272;BME280;42177;48.914;18.160;2023-11-22T23:45:56;995;;;2.9;79.4
56272;BME280;42177;48.914;18.160;2023-11-22T23:50:56;995;;;2.9;79.4
56272;BME280;42177;48.914;18.160;2023-11-22T23:55:56;994.9;;;2.8;79.9
